sensor_id;sensor_type;location;lat;lon;timestamp;P1;P4;P2;P0;N10;N4;N25;N1;N05;TS
62702;SPS30;66022;50.448;18.122;2023-02-21T00:01:42;5.43;;4.51;;;;;;;
62702;SPS30;66022;50.448;18.122;2023-02-21T00:05:56;3.12;;3.12;;;;;;;
62702;SPS30;66022;50.448;18.122;2023-02-21T00:10:11;3.12;;3.12;;;;;;;
62702;SPS30;66022;50.448;18.122;2023-02-21T00:14:24;3.12;;3.12;;;;;;;
62702;SPS30;66022;50.448;18.122;2023-02-21T00:18:38;3.41;;3.41;;;;;;;
62702;SPS30;66022;50.448;18.122;2023-02-21T00:22:52;3.41;;3.41;;;;;;;
62702;SPS30;66022;50.448;18.122;2023-02-21T00:27:06;3.31;;3.31;;;;;;;
62702;SPS30;66022;50.448;18.122;2023-02-21T00:31:20;3.31;;3.31;;;;;;;
62702;SPS30;66022;50.448;18.122;2023-02-21T00:35:34;3.19;;3.08;;;;;;;
62702;SPS30;66022;50.448;18.122;2023-02-21T00:39:48;3.19;;3.08;;;;;;;
62702;SPS30;66022;50.448;18.122;2023-02-21T00:44:02;3.19;;3.08;;;;;;;
62702;SPS30;66022;50.448;18.122;2023-02-21T00:48:22;3.47;;3.23;;;;;;;
62702;SPS30;66022;50.448;18.122;2023-02-21T00:52:30;3.47;;3.23;;;;;;;
62702;SPS30;66022;50.448;18.122;2023-02-21T00:56:45;3.05;;2.77;;;;;;;
62702;SPS30;66022;50.448;18.122;2023-02-21T01:00:58;3.05;;2.77;;;;;;;
62702;SPS30;66022;50.448;18.122;2023-02-21T01:05:12;2.46;;2.46;;;;;;;
62702;SPS30;66022;50.448;18.122;2023-02-21T01:09:26;2.46;;2.46;;;;;;;
62702;SPS30;66022;50.448;18.122;2023-02-21T01:13:40;2.46;;2.46;;;;;;;
62702;SPS30;66022;50.448;18.122;2023-02-21T01:17:54;2.24;;2.24;;;;;;;
62702;SPS30;66022;50.448;18.122;2023-02-21T01:22:08;2.24;;2.24;;;;;;;
62702;SPS30;66022;50.448;18.122;2023-02-21T01:26:22;2.71;;2.71;;;;;;;
62702;SPS30;66022;50.448;18.122;2023-02-21T01:30:36;2.71;;2.71;;;;;;;
62702;SPS30;66022;50.448;18.122;2023-02-21T01:34:50;2.71;;2.71;;;;;;;
62702;SPS30;66022;50.448;18.122;2023-02-21T01:39:04;3.08;;3.08;;;;;;;
62702;SPS30;66022;50.448;18.122;2023-02-21T01:43:22;3.08;;3.08;;;;;;;
62702;SPS30;66022;50.448;18.122;2023-02-21T01:47:32;4.44;;3.68;;;;;;;
62702;SPS30;66022;50.448;18.122;2023-02-21T01:51:46;4.44;;3.68;;;;;;;
62702;SPS30;66022;50.448;18.122;2023-02-21T01:56:00;2.64;;2.64;;;;;;;
62702;SPS30;66022;50.448;18.122;2023-02-21T02:00:14;2.64;;2.64;;;;;;;
62702;SPS30;66022;50.448;18.122;2023-02-21T02:04:28;2.64;;2.64;;;;;;;
62702;SPS30;66022;50.448;18.122;2023-02-21T02:08:42;3.04;;3.04;;;;;;;
62702;SPS30;66022;50.448;18.122;2023-02-21T02:21:31;4.14;;3.86;;;;;;;
62702;SPS30;66022;50.448;18.122;2023-02-21T02:46:48;4.72;;4.38;;;;;;;
62702;SPS30;66022;50.448;18.122;2023-02-21T02:51:03;4.72;;4.38;;;;;;;
62702;SPS30;66022;50.448;18.122;2023-02-21T02:55:34;5.40;;5.19;;;;;;;
62702;SPS30;66022;50.448;18.122;2023-02-21T02:59:30;5.40;;5.19;;;;;;;
62702;SPS30;66022;50.448;18.122;2023-02-21T03:08:00;6.09;;6.03;;;;;;;
62702;SPS30;66022;50.448;18.122;2023-02-21T03:12:17;6.09;;6.03;;;;;;;
62702;SPS30;66022;50.448;18.122;2023-02-21T03:20:40;4.41;;4.41;;;;;;;
62702;SPS30;66022;50.448;18.122;2023-02-21T03:24:54;4.41;;4.41;;;;;;;
62702;SPS30;66022;50.448;18.122;2023-02-21T03:29:08;5.78;;5.42;;;;;;;
62702;SPS30;66022;50.448;18.122;2023-02-21T03:33:22;5.78;;5.42;;;;;;;
62702;SPS30;66022;50.448;18.122;2023-02-21T03:37:38;4.68;;4.68;;;;;;;
62702;SPS30;66022;50.448;18.122;2023-02-21T03:41:50;4.68;;4.68;;;;;;;
62702;SPS30;66022;50.448;18.122;2023-02-21T03:46:04;4.36;;4.36;;;;;;;
62702;SPS30;66022;50.448;18.122;2023-02-21T03:50:18;4.36;;4.36;;;;;;;
62702;SPS30;66022;50.448;18.122;2023-02-21T03:54:33;4.36;;4.36;;;;;;;
62702;SPS30;66022;50.448;18.122;2023-02-21T03:58:49;4.61;;4.42;;;;;;;
62702;SPS30;66022;50.448;18.122;2023-02-21T04:03:00;4.61;;4.42;;;;;;;
62702;SPS30;66022;50.448;18.122;2023-02-21T04:07:15;3.81;;3.81;;;;;;;
62702;SPS30;66022;50.448;18.122;2023-02-21T04:11:29;3.81;;3.81;;;;;;;
62702;SPS30;66022;50.448;18.122;2023-02-21T04:15:42;4.50;;4.18;;;;;;;
62702;SPS30;66022;50.448;18.122;2023-02-21T04:19:56;4.50;;4.18;;;;;;;
62702;SPS30;66022;50.448;18.122;2023-02-21T04:24:10;4.50;;4.18;;;;;;;
62702;SPS30;66022;50.448;18.122;2023-02-21T04:28:24;2.99;;2.99;;;;;;;
62702;SPS30;66022;50.448;18.122;2023-02-21T04:32:38;2.99;;2.99;;;;;;;
62702;SPS30;66022;50.448;18.122;2023-02-21T04:36:52;3.39;;3.39;;;;;;;
62702;SPS30;66022;50.448;18.122;2023-02-21T04:41:06;3.39;;3.39;;;;;;;
62702;SPS30;66022;50.448;18.122;2023-02-21T04:45:20;3.14;;3.14;;;;;;;
62702;SPS30;66022;50.448;18.122;2023-02-21T04:49:34;3.14;;3.14;;;;;;;
62702;SPS30;66022;50.448;18.122;2023-02-21T04:53:48;3.14;;3.14;;;;;;;
62702;SPS30;66022;50.448;18.122;2023-02-21T04:58:02;3.31;;3.31;;;;;;;
62702;SPS30;66022;50.448;18.122;2023-02-21T05:02:17;3.31;;3.31;;;;;;;
62702;SPS30;66022;50.448;18.122;2023-02-21T05:06:30;3.52;;3.52;;;;;;;
62702;SPS30;66022;50.448;18.122;2023-02-21T05:10:44;3.52;;3.52;;;;;;;
62702;SPS30;66022;50.448;18.122;2023-02-21T05:14:58;3.52;;3.52;;;;;;;
62702;SPS30;66022;50.448;18.122;2023-02-21T05:19:12;3.89;;3.89;;;;;;;
62702;SPS30;66022;50.448;18.122;2023-02-21T05:23:26;3.89;;3.89;;;;;;;
62702;SPS30;66022;50.448;18.122;2023-02-21T05:27:40;4.27;;4.02;;;;;;;
62702;SPS30;66022;50.448;18.122;2023-02-21T05:31:54;4.27;;4.02;;;;;;;
62702;SPS30;66022;50.448;18.122;2023-02-21T05:36:08;4.51;;4.14;;;;;;;
62702;SPS30;66022;50.448;18.122;2023-02-21T05:40:22;4.51;;4.14;;;;;;;
62702;SPS30;66022;50.448;18.122;2023-02-21T05:44:36;4.51;;4.14;;;;;;;
62702;SPS30;66022;50.448;18.122;2023-02-21T05:48:50;3.69;;3.69;;;;;;;
62702;SPS30;66022;50.448;18.122;2023-02-21T05:57:18;4.62;;4.62;;;;;;;
62702;SPS30;66022;50.448;18.122;2023-02-21T06:01:32;4.62;;4.62;;;;;;;
62702;SPS30;66022;50.448;18.122;2023-02-21T06:05:46;4.32;;4.32;;;;;;;
62702;SPS30;66022;50.448;18.122;2023-02-21T06:10:00;4.32;;4.32;;;;;;;
62702;SPS30;66022;50.448;18.122;2023-02-21T06:14:19;4.32;;4.32;;;;;;;
62702;SPS30;66022;50.448;18.122;2023-02-21T06:18:28;11.15;;11.15;;;;;;;
62702;SPS30;66022;50.448;18.122;2023-02-21T06:22:42;11.15;;11.15;;;;;;;
62702;SPS30;66022;50.448;18.122;2023-02-21T06:26:56;5.01;;5.01;;;;;;;
62702;SPS30;66022;50.448;18.122;2023-02-21T06:31:10;5.01;;5.01;;;;;;;
62702;SPS30;66022;50.448;18.122;2023-02-21T06:35:24;5.46;;5.05;;;;;;;
62702;SPS30;66022;50.448;18.122;2023-02-21T06:39:41;5.46;;5.05;;;;;;;
62702;SPS30;66022;50.448;18.122;2023-02-21T06:43:52;5.46;;5.05;;;;;;;
62702;SPS30;66022;50.448;18.122;2023-02-21T06:48:06;5.21;;5.21;;;;;;;
62702;SPS30;66022;50.448;18.122;2023-02-21T06:52:20;5.21;;5.21;;;;;;;
62702;SPS30;66022;50.448;18.122;2023-02-21T06:56:34;5.49;;5.49;;;;;;;
62702;SPS30;66022;50.448;18.122;2023-02-21T07:00:48;5.49;;5.49;;;;;;;
62702;SPS30;66022;50.448;18.122;2023-02-21T07:05:02;5.49;;5.49;;;;;;;
62702;SPS30;66022;50.448;18.122;2023-02-21T07:09:17;5.54;;5.54;;;;;;;
62702;SPS30;66022;50.448;18.122;2023-02-21T07:13:30;5.54;;5.54;;;;;;;
62702;SPS30;66022;50.448;18.122;2023-02-21T07:17:44;5.05;;5.05;;;;;;;
62702;SPS30;66022;50.448;18.122;2023-02-21T07:21:58;5.05;;5.05;;;;;;;
62702;SPS30;66022;50.448;18.122;2023-02-21T07:26:12;5.76;;5.76;;;;;;;
62702;SPS30;66022;50.448;18.122;2023-02-21T07:30:26;5.76;;5.76;;;;;;;
62702;SPS30;66022;50.448;18.122;2023-02-21T07:34:40;5.76;;5.76;;;;;;;
62702;SPS30;66022;50.448;18.122;2023-02-21T07:38:54;6.38;;6.17;;;;;;;
62702;SPS30;66022;50.448;18.122;2023-02-21T07:43:08;6.38;;6.17;;;;;;;
62702;SPS30;66022;50.448;18.122;2023-02-21T07:47:23;7.06;;6.15;;;;;;;
62702;SPS30;66022;50.448;18.122;2023-02-21T07:51:36;7.06;;6.15;;;;;;;
62702;SPS30;66022;50.448;18.122;2023-02-21T07:55:50;5.14;;5.14;;;;;;;
62702;SPS30;66022;50.448;18.122;2023-02-21T08:00:04;5.14;;5.14;;;;;;;
62702;SPS30;66022;50.448;18.122;2023-02-21T08:04:18;5.14;;5.14;;;;;;;
62702;SPS30;66022;50.448;18.122;2023-02-21T08:08:33;5.58;;5.42;;;;;;;
62702;SPS30;66022;50.448;18.122;2023-02-21T08:12:46;5.58;;5.42;;;;;;;
62702;SPS30;66022;50.448;18.122;2023-02-21T08:17:00;5.59;;5.59;;;;;;;
62702;SPS30;66022;50.448;18.122;2023-02-21T08:25:28;6.69;;6.11;;;;;;;
62702;SPS30;66022;50.448;18.122;2023-02-21T08:29:42;6.69;;6.11;;;;;;;
62702;SPS30;66022;50.448;18.122;2023-02-21T08:33:56;6.69;;6.11;;;;;;;
62702;SPS30;66022;50.448;18.122;2023-02-21T08:38:12;5.44;;5.44;;;;;;;
62702;SPS30;66022;50.448;18.122;2023-02-21T08:42:27;5.44;;5.44;;;;;;;
62702;SPS30;66022;50.448;18.122;2023-02-21T08:50:52;4.56;;4.56;;;;;;;
62702;SPS30;66022;50.448;18.122;2023-02-21T08:55:06;4.56;;4.56;;;;;;;
62702;SPS30;66022;50.448;18.122;2023-02-21T08:59:25;6.14;;5.95;;;;;;;
62702;SPS30;66022;50.448;18.122;2023-02-21T09:03:34;6.14;;5.95;;;;;;;
62702;SPS30;66022;50.448;18.122;2023-02-21T09:07:48;5.66;;5.08;;;;;;;
62702;SPS30;66022;50.448;18.122;2023-02-21T09:12:02;5.66;;5.08;;;;;;;
62702;SPS30;66022;50.448;18.122;2023-02-21T09:16:16;4.65;;4.65;;;;;;;
62702;SPS30;66022;50.448;18.122;2023-02-21T09:20:30;4.65;;4.65;;;;;;;
62702;SPS30;66022;50.448;18.122;2023-02-21T09:24:45;4.65;;4.65;;;;;;;
62702;SPS30;66022;50.448;18.122;2023-02-21T09:28:58;6.74;;6.74;;;;;;;
62702;SPS30;66022;50.448;18.122;2023-02-21T09:33:12;6.74;;6.74;;;;;;;
62702;SPS30;66022;50.448;18.122;2023-02-21T09:37:27;7.44;;7.44;;;;;;;
62702;SPS30;66022;50.448;18.122;2023-02-21T09:41:40;7.44;;7.44;;;;;;;
62702;SPS30;66022;50.448;18.122;2023-02-21T09:45:57;7.05;;6.71;;;;;;;
62702;SPS30;66022;50.448;18.122;2023-02-21T09:50:13;7.05;;6.71;;;;;;;
62702;SPS30;66022;50.448;18.122;2023-02-21T09:58:41;5.87;;5.87;;;;;;;
62702;SPS30;66022;50.448;18.122;2023-02-21T10:19:48;3.42;;3.27;;;;;;;
62702;SPS30;66022;50.448;18.122;2023-02-21T10:24:02;3.42;;3.27;;;;;;;
62702;SPS30;66022;50.448;18.122;2023-02-21T10:28:20;2.92;;2.92;;;;;;;
62702;SPS30;66022;50.448;18.122;2023-02-21T10:32:28;2.92;;2.92;;;;;;;
62702;SPS30;66022;50.448;18.122;2023-02-21T10:36:47;3.37;;3.11;;;;;;;
62702;SPS30;66022;50.448;18.122;2023-02-21T10:40:58;3.37;;3.11;;;;;;;
62702;SPS30;66022;50.448;18.122;2023-02-21T10:45:10;3.47;;3.47;;;;;;;
62702;SPS30;66022;50.448;18.122;2023-02-21T10:49:25;3.47;;3.47;;;;;;;
62702;SPS30;66022;50.448;18.122;2023-02-21T10:53:42;3.47;;3.47;;;;;;;
62702;SPS30;66022;50.448;18.122;2023-02-21T10:57:53;3.39;;3.39;;;;;;;
62702;SPS30;66022;50.448;18.122;2023-02-21T11:06:30;2.80;;2.80;;;;;;;
62702;SPS30;66022;50.448;18.122;2023-02-21T11:10:36;2.80;;2.80;;;;;;;
62702;SPS30;66022;50.448;18.122;2023-02-21T11:19:03;2.54;;2.54;;;;;;;
62702;SPS30;66022;50.448;18.122;2023-02-21T11:23:18;2.54;;2.54;;;;;;;
62702;SPS30;66022;50.448;18.122;2023-02-21T11:27:31;2.85;;2.85;;;;;;;
62702;SPS30;66022;50.448;18.122;2023-02-21T11:31:44;2.85;;2.85;;;;;;;
62702;SPS30;66022;50.448;18.122;2023-02-21T12:01:25;3.56;;3.11;;;;;;;
62702;SPS30;66022;50.448;18.122;2023-02-21T12:05:43;2.99;;2.99;;;;;;;
62702;SPS30;66022;50.448;18.122;2023-02-21T12:18:23;4.74;;4.17;;;;;;;
62702;SPS30;66022;50.448;18.122;2023-02-21T12:31:06;4.63;;4.38;;;;;;;
62702;SPS30;66022;50.448;18.122;2023-02-21T12:47:58;3.70;;3.70;;;;;;;
62702;SPS30;66022;50.448;18.122;2023-02-21T13:04:58;2.99;;2.99;;;;;;;
62702;SPS30;66022;50.448;18.122;2023-02-21T13:13:25;4.49;;4.32;;;;;;;
62702;SPS30;66022;50.448;18.122;2023-02-21T13:17:35;4.03;;3.68;;;;;;;
62702;SPS30;66022;50.448;18.122;2023-02-21T13:21:58;4.03;;3.68;;;;;;;
62702;SPS30;66022;50.448;18.122;2023-02-21T13:30:19;4.07;;4.07;;;;;;;
62702;SPS30;66022;50.448;18.122;2023-02-21T13:34:34;4.07;;4.07;;;;;;;
62702;SPS30;66022;50.448;18.122;2023-02-21T13:38:44;3.81;;3.81;;;;;;;
62702;SPS30;66022;50.448;18.122;2023-02-21T13:42:59;3.81;;3.81;;;;;;;
62702;SPS30;66022;50.448;18.122;2023-02-21T13:47:13;4.95;;4.70;;;;;;;
62702;SPS30;66022;50.448;18.122;2023-02-21T13:56:10;4.46;;4.23;;;;;;;
62702;SPS30;66022;50.448;18.122;2023-02-21T13:59:54;4.46;;4.23;;;;;;;
62702;SPS30;66022;50.448;18.122;2023-02-21T14:08:26;5.51;;4.70;;;;;;;
62702;SPS30;66022;50.448;18.122;2023-02-21T14:12:37;5.51;;4.70;;;;;;;
62702;SPS30;66022;50.448;18.122;2023-02-21T14:16:51;3.93;;3.93;;;;;;;
62702;SPS30;66022;50.448;18.122;2023-02-21T14:25:22;4.61;;4.21;;;;;;;
62702;SPS30;66022;50.448;18.122;2023-02-21T14:29:37;4.61;;4.21;;;;;;;
62702;SPS30;66022;50.448;18.122;2023-02-21T14:33:48;4.61;;4.21;;;;;;;
62702;SPS30;66022;50.448;18.122;2023-02-21T14:38:15;3.96;;3.96;;;;;;;
62702;SPS30;66022;50.448;18.122;2023-02-21T14:42:22;3.96;;3.96;;;;;;;
62702;SPS30;66022;50.448;18.122;2023-02-21T14:46:50;4.41;;4.06;;;;;;;
62702;SPS30;66022;50.448;18.122;2023-02-21T14:55:01;4.41;;4.06;;;;;;;
62702;SPS30;66022;50.448;18.122;2023-02-21T15:03:28;3.80;;3.80;;;;;;;
62702;SPS30;66022;50.448;18.122;2023-02-21T15:07:50;2.92;;2.92;;;;;;;
62702;SPS30;66022;50.448;18.122;2023-02-21T15:11:52;2.92;;2.92;;;;;;;
62702;SPS30;66022;50.448;18.122;2023-02-21T15:16:07;3.77;;3.39;;;;;;;
62702;SPS30;66022;50.448;18.122;2023-02-21T15:20:20;3.77;;3.39;;;;;;;
62702;SPS30;66022;50.448;18.122;2023-02-21T15:24:35;3.77;;3.39;;;;;;;
62702;SPS30;66022;50.448;18.122;2023-02-21T15:37:23;6.95;;5.66;;;;;;;
62702;SPS30;66022;50.448;18.122;2023-02-21T15:45:45;4.47;;4.47;;;;;;;
62702;SPS30;66022;50.448;18.122;2023-02-21T15:50:00;4.47;;4.47;;;;;;;
62702;SPS30;66022;50.448;18.122;2023-02-21T15:58:27;4.53;;4.10;;;;;;;
62702;SPS30;66022;50.448;18.122;2023-02-21T16:02:40;4.53;;4.10;;;;;;;
62702;SPS30;66022;50.448;18.122;2023-02-21T16:06:55;4.53;;4.53;;;;;;;
62702;SPS30;66022;50.448;18.122;2023-02-21T16:11:08;4.53;;4.53;;;;;;;
62702;SPS30;66022;50.448;18.122;2023-02-21T16:15:24;5.29;;5.01;;;;;;;
62702;SPS30;66022;50.448;18.122;2023-02-21T16:19:36;5.29;;5.01;;;;;;;
62702;SPS30;66022;50.448;18.122;2023-02-21T16:23:51;5.29;;5.01;;;;;;;
62702;SPS30;66022;50.448;18.122;2023-02-21T16:28:05;4.74;;4.72;;;;;;;
62702;SPS30;66022;50.448;18.122;2023-02-21T16:32:19;4.74;;4.72;;;;;;;
62702;SPS30;66022;50.448;18.122;2023-02-21T16:36:33;4.64;;4.64;;;;;;;
62702;SPS30;66022;50.448;18.122;2023-02-21T16:40:47;4.64;;4.64;;;;;;;
62702;SPS30;66022;50.448;18.122;2023-02-21T16:45:01;4.64;;4.64;;;;;;;
62702;SPS30;66022;50.448;18.122;2023-02-21T16:49:15;6.91;;6.37;;;;;;;
62702;SPS30;66022;50.448;18.122;2023-02-21T16:53:32;6.91;;6.37;;;;;;;
62702;SPS30;66022;50.448;18.122;2023-02-21T16:57:46;5.90;;5.68;;;;;;;
62702;SPS30;66022;50.448;18.122;2023-02-21T17:01:57;5.90;;5.68;;;;;;;
62702;SPS30;66022;50.448;18.122;2023-02-21T17:06:15;6.37;;6.19;;;;;;;
62702;SPS30;66022;50.448;18.122;2023-02-21T17:10:25;6.37;;6.19;;;;;;;
62702;SPS30;66022;50.448;18.122;2023-02-21T17:14:39;6.37;;6.19;;;;;;;
62702;SPS30;66022;50.448;18.122;2023-02-21T17:18:53;8.28;;7.44;;;;;;;
62702;SPS30;66022;50.448;18.122;2023-02-21T17:23:07;8.28;;7.44;;;;;;;
62702;SPS30;66022;50.448;18.122;2023-02-21T17:27:21;6.33;;6.14;;;;;;;
62702;SPS30;66022;50.448;18.122;2023-02-21T17:31:37;6.33;;6.14;;;;;;;
62702;SPS30;66022;50.448;18.122;2023-02-21T17:35:51;6.77;;6.70;;;;;;;
62702;SPS30;66022;50.448;18.122;2023-02-21T17:40:03;6.77;;6.70;;;;;;;
62702;SPS30;66022;50.448;18.122;2023-02-21T17:44:17;6.77;;6.70;;;;;;;
62702;SPS30;66022;50.448;18.122;2023-02-21T17:48:34;7.31;;7.31;;;;;;;
62702;SPS30;66022;50.448;18.122;2023-02-21T17:52:45;7.31;;7.31;;;;;;;
62702;SPS30;66022;50.448;18.122;2023-02-21T17:56:59;8.75;;7.74;;;;;;;
62702;SPS30;66022;50.448;18.122;2023-02-21T18:01:14;8.75;;7.74;;;;;;;
62702;SPS30;66022;50.448;18.122;2023-02-21T18:05:27;8.14;;7.21;;;;;;;
62702;SPS30;66022;50.448;18.122;2023-02-21T18:09:41;8.14;;7.21;;;;;;;
62702;SPS30;66022;50.448;18.122;2023-02-21T18:13:55;8.14;;7.21;;;;;;;
62702;SPS30;66022;50.448;18.122;2023-02-21T18:18:09;9.04;;8.66;;;;;;;
62702;SPS30;66022;50.448;18.122;2023-02-21T18:22:22;9.04;;8.66;;;;;;;
62702;SPS30;66022;50.448;18.122;2023-02-21T18:26:37;9.05;;8.70;;;;;;;
62702;SPS30;66022;50.448;18.122;2023-02-21T18:30:50;9.05;;8.70;;;;;;;
62702;SPS30;66022;50.448;18.122;2023-02-21T18:35:05;9.05;;8.70;;;;;;;
62702;SPS30;66022;50.448;18.122;2023-02-21T18:39:20;11.29;;11.09;;;;;;;
62702;SPS30;66022;50.448;18.122;2023-02-21T18:43:33;11.29;;11.09;;;;;;;
62702;SPS30;66022;50.448;18.122;2023-02-21T18:47:47;11.71;;11.71;;;;;;;
62702;SPS30;66022;50.448;18.122;2023-02-21T18:52:03;11.71;;11.71;;;;;;;
62702;SPS30;66022;50.448;18.122;2023-02-21T18:56:15;14.11;;13.44;;;;;;;
62702;SPS30;66022;50.448;18.122;2023-02-21T19:00:29;14.11;;13.44;;;;;;;
62702;SPS30;66022;50.448;18.122;2023-02-21T19:04:43;14.11;;13.44;;;;;;;
62702;SPS30;66022;50.448;18.122;2023-02-21T19:08:57;8.08;;7.62;;;;;;;
62702;SPS30;66022;50.448;18.122;2023-02-21T19:13:11;8.08;;7.62;;;;;;;
62702;SPS30;66022;50.448;18.122;2023-02-21T19:17:25;8.07;;7.66;;;;;;;
62702;SPS30;66022;50.448;18.122;2023-02-21T19:21:39;8.07;;7.66;;;;;;;
62702;SPS30;66022;50.448;18.122;2023-02-21T19:25:53;7.77;;7.19;;;;;;;
62702;SPS30;66022;50.448;18.122;2023-02-21T19:30:07;7.77;;7.19;;;;;;;
62702;SPS30;66022;50.448;18.122;2023-02-21T19:34:21;7.77;;7.19;;;;;;;
62702;SPS30;66022;50.448;18.122;2023-02-21T19:38:34;11.29;;9.15;;;;;;;
62702;SPS30;66022;50.448;18.122;2023-02-21T19:42:49;11.29;;9.15;;;;;;;
62702;SPS30;66022;50.448;18.122;2023-02-21T19:47:03;8.95;;8.88;;;;;;;
62702;SPS30;66022;50.448;18.122;2023-02-21T19:51:17;8.95;;8.88;;;;;;;
62702;SPS30;66022;50.448;18.122;2023-02-21T19:55:31;12.76;;10.93;;;;;;;
62702;SPS30;66022;50.448;18.122;2023-02-21T19:59:45;12.76;;10.93;;;;;;;
62702;SPS30;66022;50.448;18.122;2023-02-21T20:03:59;12.76;;10.93;;;;;;;
62702;SPS30;66022;50.448;18.122;2023-02-21T20:08:13;10.26;;9.30;;;;;;;
62702;SPS30;66022;50.448;18.122;2023-02-21T20:12:27;10.26;;9.30;;;;;;;
62702;SPS30;66022;50.448;18.122;2023-02-21T20:16:42;9.41;;8.58;;;;;;;
62702;SPS30;66022;50.448;18.122;2023-02-21T20:20:55;9.41;;8.58;;;;;;;
62702;SPS30;66022;50.448;18.122;2023-02-21T20:25:09;9.41;;8.58;;;;;;;
62702;SPS30;66022;50.448;18.122;2023-02-21T20:29:25;8.32;;7.11;;;;;;;
62702;SPS30;66022;50.448;18.122;2023-02-21T20:33:37;8.32;;7.11;;;;;;;
62702;SPS30;66022;50.448;18.122;2023-02-21T20:37:51;9.66;;7.99;;;;;;;
62702;SPS30;66022;50.448;18.122;2023-02-21T20:42:05;9.66;;7.99;;;;;;;
62702;SPS30;66022;50.448;18.122;2023-02-21T20:46:20;12.12;;11.78;;;;;;;
62702;SPS30;66022;50.448;18.122;2023-02-21T20:50:33;12.12;;11.78;;;;;;;
62702;SPS30;66022;50.448;18.122;2023-02-21T20:54:47;12.12;;11.78;;;;;;;
62702;SPS30;66022;50.448;18.122;2023-02-21T20:59:01;16.33;;15.17;;;;;;;
62702;SPS30;66022;50.448;18.122;2023-02-21T21:03:15;16.33;;15.17;;;;;;;
62702;SPS30;66022;50.448;18.122;2023-02-21T21:07:29;99.32;;72.80;;;;;;;
62702;SPS30;66022;50.448;18.122;2023-02-21T21:11:43;99.32;;72.80;;;;;;;
62702;SPS30;66022;50.448;18.122;2023-02-21T21:15:57;45.98;;38.29;;;;;;;
62702;SPS30;66022;50.448;18.122;2023-02-21T21:20:13;45.98;;38.29;;;;;;;
62702;SPS30;66022;50.448;18.122;2023-02-21T21:24:25;45.98;;38.29;;;;;;;
62702;SPS30;66022;50.448;18.122;2023-02-21T21:28:39;30.90;;28.23;;;;;;;
62702;SPS30;66022;50.448;18.122;2023-02-21T21:32:53;30.90;;28.23;;;;;;;
62702;SPS30;66022;50.448;18.122;2023-02-21T21:37:07;59.28;;48.06;;;;;;;
62702;SPS30;66022;50.448;18.122;2023-02-21T21:41:21;59.28;;48.06;;;;;;;
62702;SPS30;66022;50.448;18.122;2023-02-21T21:45:35;52.09;;50.66;;;;;;;
62702;SPS30;66022;50.448;18.122;2023-02-21T21:49:49;52.09;;50.66;;;;;;;
62702;SPS30;66022;50.448;18.122;2023-02-21T21:54:03;52.09;;50.66;;;;;;;
62702;SPS30;66022;50.448;18.122;2023-02-21T21:58:17;55.51;;52.63;;;;;;;
62702;SPS30;66022;50.448;18.122;2023-02-21T22:02:31;55.51;;52.63;;;;;;;
62702;SPS30;66022;50.448;18.122;2023-02-21T22:06:45;38.46;;35.97;;;;;;;
62702;SPS30;66022;50.448;18.122;2023-02-21T22:10:59;38.46;;35.97;;;;;;;
62702;SPS30;66022;50.448;18.122;2023-02-21T22:15:13;38.46;;35.97;;;;;;;
62702;SPS30;66022;50.448;18.122;2023-02-21T22:19:31;24.58;;24.20;;;;;;;
62702;SPS30;66022;50.448;18.122;2023-02-21T22:23:41;24.58;;24.20;;;;;;;
62702;SPS30;66022;50.448;18.122;2023-02-21T22:27:59;16.16;;14.85;;;;;;;
62702;SPS30;66022;50.448;18.122;2023-02-21T22:32:09;16.16;;14.85;;;;;;;
62702;SPS30;66022;50.448;18.122;2023-02-21T22:36:25;21.23;;17.84;;;;;;;
62702;SPS30;66022;50.448;18.122;2023-02-21T22:40:37;21.23;;17.84;;;;;;;
62702;SPS30;66022;50.448;18.122;2023-02-21T22:44:51;21.23;;17.84;;;;;;;
62702;SPS30;66022;50.448;18.122;2023-02-21T22:49:05;31.10;;24.81;;;;;;;
62702;SPS30;66022;50.448;18.122;2023-02-21T22:53:19;31.10;;24.81;;;;;;;
62702;SPS30;66022;50.448;18.122;2023-02-21T22:57:33;24.04;;22.10;;;;;;;
62702;SPS30;66022;50.448;18.122;2023-02-21T23:01:47;24.04;;22.10;;;;;;;
62702;SPS30;66022;50.448;18.122;2023-02-21T23:06:01;29.97;;25.31;;;;;;;
62702;SPS30;66022;50.448;18.122;2023-02-21T23:10:16;29.97;;25.31;;;;;;;
62702;SPS30;66022;50.448;18.122;2023-02-21T23:14:29;29.97;;25.31;;;;;;;
62702;SPS30;66022;50.448;18.122;2023-02-21T23:18:43;22.13;;20.41;;;;;;;
62702;SPS30;66022;50.448;18.122;2023-02-21T23:22:57;22.13;;20.41;;;;;;;
62702;SPS30;66022;50.448;18.122;2023-02-21T23:27:11;23.82;;20.26;;;;;;;
62702;SPS30;66022;50.448;18.122;2023-02-21T23:31:25;23.82;;20.26;;;;;;;
62702;SPS30;66022;50.448;18.122;2023-02-21T23:35:48;17.80;;16.69;;;;;;;
62702;SPS30;66022;50.448;18.122;2023-02-21T23:39:53;17.80;;16.69;;;;;;;
62702;SPS30;66022;50.448;18.122;2023-02-21T23:44:07;17.80;;16.69;;;;;;;
62702;SPS30;66022;50.448;18.122;2023-02-21T23:48:21;16.71;;14.76;;;;;;;
62702;SPS30;66022;50.448;18.122;2023-02-21T23:52:35;16.71;;14.76;;;;;;;
62702;SPS30;66022;50.448;18.122;2023-02-21T23:56:49;13.43;;12.83;;;;;;;
